Time;durP1;ratioP1;P1;durP2;ratioP2;P2;SDS_P1;SDS_P2;PMS_P1;PMS_P2;Temp;Humidity;BMP_temperature;BMP_pressure;BME280_temperature;BME280_humidity;BME280_pressure;Samples;Min_cycle;Max_cycle;Signal;HPM_P1;HPM_P2
2022/11/13 00:02:45;;;;;;;53.20;9.15;;;;;;;;;;5008035;28;20395;-81
2022/11/13 00:05:30;;;;;;;38.75;6.97;;;;;;;;;;4987058;28;20021;-80
2022/11/13 00:08:14;;;;;;;54.42;10.23;;;;;;;;;;5000888;28;20038;-80
2022/11/13 00:11:05;;;;;;;24.23;7.35;;;;;;;;;;5005787;28;20034;-81
2022/11/13 00:13:52;;;;;;;23.10;7.60;;;;;;;;;;5009744;28;20030;-81
2022/11/13 00:16:36;;;;;;;65.97;8.82;;;;;;;;;;5007276;28;20030;-81
2022/11/13 00:19:21;;;;;;;45.40;8.85;;;;;;;;;;5002180;28;20038;-81
2022/11/13 00:22:05;;;;;;;90.00;10.75;;;;;;;;;;5008054;28;20022;-80
2022/11/13 00:24:54;;;;;;;46.00;7.15;;;;;;;;;;5003543;28;20026;-81
2022/11/13 00:27:38;;;;;;;68.85;11.45;;;;;;;;;;5001286;28;20399;-81
2022/11/13 00:30:23;;;;;;;67.78;10.40;;;;;;;;;;5005346;28;20042;-81
2022/11/13 00:33:09;;;;;;;77.88;10.02;;;;;;;;;;5010923;28;20033;-81
2022/11/13 00:36:02;;;;;;;28.40;5.40;;;;;;;;;;4991879;28;20484;-81
2022/11/13 00:38:47;;;;;;;54.53;8.55;;;;;;;;;;5008619;28;20025;-81
2022/11/13 00:41:33;;;;;;;74.68;10.45;;;;;;;;;;5005208;28;20037;-81
2022/11/13 00:44:20;;;;;;;65.15;11.60;;;;;;;;;;5008958;28;20041;-81
2022/11/13 00:47:05;;;;;;;50.03;12.23;;;;;;;;;;4998558;28;20034;-81
2022/11/13 00:49:50;;;;;;;56.45;7.22;;;;;;;;;;5019234;22;20503;-73
2022/11/13 00:52:34;;;;;;;25.25;7.00;;;;;;;;;;4991797;28;20395;-74
2022/11/13 00:55:18;;;;;;;64.63;8.43;;;;;;;;;;5005209;28;20102;-74
2022/11/13 00:58:06;;;;;;;99.68;11.85;;;;;;;;;;5004850;28;20034;-74
2022/11/13 01:00:50;;;;;;;44.55;8.32;;;;;;;;;;4973538;28;20041;-73
2022/11/13 01:03:35;;;;;;;75.38;11.07;;;;;;;;;;4988807;28;20046;-73
2022/11/13 01:06:21;;;;;;;53.17;9.75;;;;;;;;;;4989230;28;20049;-73
2022/11/13 01:09:05;;;;;;;52.72;10.02;;;;;;;;;;4989278;28;20164;-74
2022/11/13 01:11:50;;;;;;;71.03;10.02;;;;;;;;;;4984402;28;20046;-74
2022/11/13 01:14:34;;;;;;;83.57;10.57;;;;;;;;;;4982114;28;20034;-74
2022/11/13 01:17:20;;;;;;;45.17;10.68;;;;;;;;;;4989095;28;20030;-74
2022/11/13 01:20:08;;;;;;;71.20;12.20;;;;;;;;;;4993590;28;20037;-74
2022/11/13 01:22:52;;;;;;;31.17;6.78;;;;;;;;;;4984814;28;20468;-73
2022/11/13 01:25:38;;;;;;;61.08;8.73;;;;;;;;;;4989532;28;20507;-73
2022/11/13 01:28:25;;;;;;;70.05;9.68;;;;;;;;;;4986110;28;20034;-74
2022/11/13 01:31:11;;;;;;;52.45;9.18;;;;;;;;;;4985600;28;20030;-74
2022/11/13 01:33:58;;;;;;;174.60;21.20;;;;;;;;;;4988284;28;20027;-74
2022/11/13 01:36:42;;;;;;;92.57;15.00;;;;;;;;;;4992572;28;20057;-74
2022/11/13 01:39:26;;;;;;;106.93;13.90;;;;;;;;;;4989301;28;20033;-73
2022/11/13 01:42:13;;;;;;;166.10;20.85;;;;;;;;;;4991468;28;20468;-73
2022/11/13 01:45:03;;;;;;;62.58;11.38;;;;;;;;;;4983588;28;20030;-74
2022/11/13 01:47:47;;;;;;;114.47;13.55;;;;;;;;;;4986561;28;20038;-73
2022/11/13 01:50:37;;;;;;;83.00;11.80;;;;;;;;;;4977351;28;20038;-74
2022/11/13 01:53:21;;;;;;;45.63;8.75;;;;;;;;;;4986428;28;20041;-73
2022/11/13 01:56:06;;;;;;;86.72;10.93;;;;;;;;;;4988166;28;20022;-74
2022/11/13 01:58:53;;;;;;;106.85;15.77;;;;;;;;;;4987330;28;20046;-73
2022/11/13 02:01:38;;;;;;;172.60;21.20;;;;;;;;;;4971192;28;20039;-73
2022/11/13 02:04:23;;;;;;;25.65;7.43;;;;;;;;;;4996333;28;21097;-74
2022/11/13 02:07:11;;;;;;;32.78;6.25;;;;;;;;;;4983794;28;20037;-73
2022/11/13 02:09:57;;;;;;;86.00;10.48;;;;;;;;;;4989623;28;20400;-73
2022/11/13 02:12:46;;;;;;;41.25;6.93;;;;;;;;;;4985348;28;20419;-73
2022/11/13 02:15:34;;;;;;;67.03;14.05;;;;;;;;;;4987449;28;20503;-73
2022/11/13 02:18:20;;;;;;;60.20;10.80;;;;;;;;;;4981062;28;20388;-73
2022/11/13 02:21:12;;;;;;;57.80;8.13;;;;;;;;;;4987799;28;20030;-74
2022/11/13 02:24:17;;;;;;;46.97;10.35;;;;;;;;;;4986092;28;20034;-73
2022/11/13 02:27:09;;;;;;;130.52;13.93;;;;;;;;;;4985411;28;20026;-75
2022/11/13 02:29:54;;;;;;;87.32;11.90;;;;;;;;;;4988812;28;20411;-74
2022/11/13 02:32:47;;;;;;;104.15;12.82;;;;;;;;;;4986661;28;20031;-74
2022/11/13 02:35:36;;;;;;;35.95;7.90;;;;;;;;;;4985258;28;20465;-74
2022/11/13 02:38:23;;;;;;;56.15;8.88;;;;;;;;;;4989566;28;20038;-74
2022/11/13 02:41:07;;;;;;;227.60;24.38;;;;;;;;;;4987133;28;20026;-74
2022/11/13 02:43:56;;;;;;;76.95;13.18;;;;;;;;;;4984136;28;20034;-74
2022/11/13 02:46:40;;;;;;;90.40;15.20;;;;;;;;;;4987219;28;20034;-74
2022/11/13 02:49:25;;;;;;;210.73;28.13;;;;;;;;;;4983659;28;20039;-74
2022/11/13 02:52:11;;;;;;;88.93;13.43;;;;;;;;;;4981548;28;20488;-73
2022/11/13 02:54:56;;;;;;;113.07;13.00;;;;;;;;;;4986888;28;20037;-74
2022/11/13 02:57:40;;;;;;;141.98;19.42;;;;;;;;;;4985196;28;20034;-73
2022/11/13 03:00:29;;;;;;;51.83;9.13;;;;;;;;;;4990823;28;20029;-73
2022/11/13 03:03:13;;;;;;;50.50;11.13;;;;;;;;;;4999381;28;20030;-74
2022/11/13 03:05:58;;;;;;;105.05;17.20;;;;;;;;;;4984863;28;20111;-74
2022/11/13 03:08:45;;;;;;;32.78;11.70;;;;;;;;;;4983659;28;20034;-74
2022/11/13 03:11:29;;;;;;;88.32;12.52;;;;;;;;;;4988040;28;20031;-74
2022/11/13 03:14:13;;;;;;;64.22;12.90;;;;;;;;;;4987475;28;20027;-74
2022/11/13 03:16:58;;;;;;;130.15;13.82;;;;;;;;;;4985761;28;20033;-73
2022/11/13 03:19:44;;;;;;;173.13;18.30;;;;;;;;;;4986652;28;20504;-73
2022/11/13 03:22:33;;;;;;;84.97;11.02;;;;;;;;;;4986954;28;20033;-73
2022/11/13 03:25:20;;;;;;;74.40;11.82;;;;;;;;;;4975994;28;20358;-73
2022/11/13 03:28:05;;;;;;;102.35;14.02;;;;;;;;;;4991587;28;20485;-73
2022/11/13 03:30:49;;;;;;;91.97;12.57;;;;;;;;;;4983247;28;20023;-73
2022/11/13 03:33:33;;;;;;;81.68;12.75;;;;;;;;;;4983906;28;20027;-73
2022/11/13 03:36:20;;;;;;;74.13;12.15;;;;;;;;;;4983824;28;20026;-74
2022/11/13 03:39:05;;;;;;;93.93;12.88;;;;;;;;;;4988954;28;20030;-73
2022/11/13 03:41:51;;;;;;;85.15;11.93;;;;;;;;;;4989077;28;20030;-74
2022/11/13 03:44:35;;;;;;;88.75;10.45;;;;;;;;;;4987044;28;20034;-74
2022/11/13 03:47:22;;;;;;;44.42;9.63;;;;;;;;;;4997452;28;20042;-73
2022/11/13 03:50:07;;;;;;;67.40;9.40;;;;;;;;;;4973755;28;20034;-74
2022/11/13 03:52:51;;;;;;;111.72;14.07;;;;;;;;;;4980616;28;20110;-73
2022/11/13 03:55:36;;;;;;;96.03;13.35;;;;;;;;;;4973489;28;20039;-73
2022/11/13 03:58:24;;;;;;;48.85;9.25;;;;;;;;;;4991833;28;20026;-73
2022/11/13 04:01:11;;;;;;;85.47;11.27;;;;;;;;;;4993420;28;20042;-73
2022/11/13 04:03:56;;;;;;;43.20;7.68;;;;;;;;;;4990621;28;20018;-73
2022/11/13 04:06:40;;;;;;;78.93;9.35;;;;;;;;;;4987592;28;20396;-73
2022/11/13 04:09:24;;;;;;;78.38;10.70;;;;;;;;;;4990460;28;20030;-73
2022/11/13 04:12:09;;;;;;;137.73;17.05;;;;;;;;;;4990832;28;20034;-74
2022/11/13 04:14:56;;;;;;;60.15;10.25;;;;;;;;;;4992607;28;20473;-73
2022/11/13 04:17:41;;;;;;;109.40;12.23;;;;;;;;;;4990416;28;20038;-74
2022/11/13 04:20:26;;;;;;;68.70;9.25;;;;;;;;;;5001773;28;20495;-73
2022/11/13 04:23:14;;;;;;;62.97;8.48;;;;;;;;;;4987156;28;20034;-74
2022/11/13 04:26:01;;;;;;;121.75;15.43;;;;;;;;;;4987094;28;20026;-73
2022/11/13 04:28:45;;;;;;;108.35;13.00;;;;;;;;;;4987459;28;20030;-73
2022/11/13 04:31:32;;;;;;;29.08;6.22;;;;;;;;;;4987122;28;20034;-73
2022/11/13 04:34:16;;;;;;;97.07;8.70;;;;;;;;;;4987178;28;20038;-74
2022/11/13 04:37:00;;;;;;;22.67;6.85;;;;;;;;;;4984635;28;20483;-73
2022/11/13 04:39:45;;;;;;;44.28;7.38;;;;;;;;;;4989041;28;20034;-74
2022/11/13 04:42:47;;;;;;;36.70;8.85;;;;;;;;;;4982754;28;20039;-73
2022/11/13 04:45:32;;;;;;;34.25;8.05;;;;;;;;;;4986222;28;20034;-73
2022/11/13 04:48:18;;;;;;;69.53;11.25;;;;;;;;;;4986634;28;20022;-73
2022/11/13 04:51:05;;;;;;;41.28;8.75;;;;;;;;;;4982468;28;20038;-73
2022/11/13 04:53:49;;;;;;;134.77;14.95;;;;;;;;;;4990225;28;20022;-73
2022/11/13 04:56:34;;;;;;;46.05;10.52;;;;;;;;;;4985553;28;20053;-73
2022/11/13 04:59:20;;;;;;;47.58;8.68;;;;;;;;;;4985424;28;20034;-73
2022/11/13 05:02:05;;;;;;;43.22;8.25;;;;;;;;;;4991999;28;20046;-74
2022/11/13 05:04:49;;;;;;;36.25;8.07;;;;;;;;;;4990832;28;20030;-74
2022/11/13 05:07:35;;;;;;;38.10;7.85;;;;;;;;;;4994121;28;20053;-74
2022/11/13 05:10:22;;;;;;;71.75;8.65;;;;;;;;;;4986638;28;20038;-74
2022/11/13 05:13:09;;;;;;;58.85;10.10;;;;;;;;;;4982910;28;20041;-74
2022/11/13 05:16:04;;;;;;;133.82;18.98;;;;;;;;;;4990882;28;20026;-73
2022/11/13 05:18:51;;;;;;;124.70;13.57;;;;;;;;;;4986456;28;20026;-73
2022/11/13 05:21:36;;;;;;;217.15;26.38;;;;;;;;;;4987441;28;20402;-74
2022/11/13 05:24:21;;;;;;;109.03;19.35;;;;;;;;;;4989188;28;20030;-74
2022/11/13 05:27:05;;;;;;;124.32;16.23;;;;;;;;;;4981054;28;20037;-74
2022/11/13 05:29:49;;;;;;;196.95;24.92;;;;;;;;;;4980718;28;20034;-74
2022/11/13 05:32:34;;;;;;;80.15;12.73;;;;;;;;;;4986099;28;20063;-73
2022/11/13 05:35:23;;;;;;;99.53;17.35;;;;;;;;;;4983216;28;20034;-74
2022/11/13 05:38:12;;;;;;;139.77;19.98;;;;;;;;;;4988148;28;20034;-74
2022/11/13 05:41:03;;;;;;;122.97;17.20;;;;;;;;;;4975543;28;20034;-74
2022/11/13 05:43:48;;;;;;;83.50;14.88;;;;;;;;;;4986761;28;20022;-74
2022/11/13 05:46:35;;;;;;;84.97;12.48;;;;;;;;;;4985612;28;20190;-74
2022/11/13 05:49:20;;;;;;;105.57;12.55;;;;;;;;;;4989741;28;20022;-74
2022/11/13 05:52:06;;;;;;;135.70;14.98;;;;;;;;;;4979977;28;20030;-74
2022/11/13 05:54:53;;;;;;;94.70;13.93;;;;;;;;;;4986324;28;20038;-74
2022/11/13 05:57:38;;;;;;;44.35;9.60;;;;;;;;;;4987101;28;20045;-74
2022/11/13 06:00:22;;;;;;;67.35;8.65;;;;;;;;;;4986475;28;20027;-74
2022/11/13 06:03:09;;;;;;;80.55;14.55;;;;;;;;;;4985502;28;20033;-74
2022/11/13 06:05:55;;;;;;;20.20;6.80;;;;;;;;;;4982118;28;20023;-74
2022/11/13 06:08:40;;;;;;;147.50;13.07;;;;;;;;;;4984284;28;20401;-74
2022/11/13 06:11:29;;;;;;;139.38;18.13;;;;;;;;;;4986224;28;20034;-74
2022/11/13 06:14:14;;;;;;;156.30;18.13;;;;;;;;;;4987348;28;20477;-74
2022/11/13 06:17:01;;;;;;;137.27;17.52;;;;;;;;;;4985131;28;20031;-74
2022/11/13 06:19:47;;;;;;;83.35;10.10;;;;;;;;;;4986728;28;20476;-74
2022/11/13 06:22:31;;;;;;;52.47;9.07;;;;;;;;;;4981429;28;20057;-74
2022/11/13 06:25:18;;;;;;;138.20;14.80;;;;;;;;;;4987848;28;20026;-74
2022/11/13 06:28:03;;;;;;;62.75;8.05;;;;;;;;;;4985595;28;20061;-74
2022/11/13 06:30:47;;;;;;;129.57;16.02;;;;;;;;;;4989513;28;20039;-74
2022/11/13 06:33:31;;;;;;;59.95;8.18;;;;;;;;;;4985679;28;20030;-74
2022/11/13 06:36:20;;;;;;;89.93;8.45;;;;;;;;;;4981814;28;20026;-74
2022/11/13 06:39:07;;;;;;;180.10;14.43;;;;;;;;;;4992254;28;20026;-74
2022/11/13 06:41:51;;;;;;;140.15;13.02;;;;;;;;;;4974745;28;20045;-74
2022/11/13 06:44:36;;;;;;;194.13;14.45;;;;;;;;;;4989446;28;20384;-74
2022/11/13 06:47:20;;;;;;;175.63;14.18;;;;;;;;;;4984532;28;20432;-74
2022/11/13 06:50:05;;;;;;;;;;;;;;;;;;5014848;22;20060;-80
2022/11/13 06:52:49;;;;;;;134.40;13.70;;;;;;;;;;5007374;28;19910;-80
2022/11/13 06:55:34;;;;;;;66.28;9.07;;;;;;;;;;5002858;28;20041;-80
2022/11/13 06:58:18;;;;;;;161.65;16.98;;;;;;;;;;5004673;28;20026;-79
2022/11/13 07:01:06;;;;;;;206.63;22.25;;;;;;;;;;5004573;28;20400;-80
2022/11/13 07:03:50;;;;;;;112.07;20.17;;;;;;;;;;5009216;28;20029;-80
2022/11/13 07:06:39;;;;;;;165.60;20.80;;;;;;;;;;5003238;28;20484;-79
2022/11/13 07:09:23;;;;;;;105.90;11.18;;;;;;;;;;5004307;28;20030;-79
2022/11/13 07:12:08;;;;;;;84.53;9.93;;;;;;;;;;5008730;28;20037;-79
2022/11/13 07:14:52;;;;;;;210.95;18.83;;;;;;;;;;5011387;28;20034;-80
2022/11/13 07:17:36;;;;;;;51.55;10.95;;;;;;;;;;5006434;28;20026;-80
2022/11/13 07:20:23;;;;;;;84.82;11.95;;;;;;;;;;5008633;28;20026;-80
2022/11/13 07:23:10;;;;;;;102.88;11.00;;;;;;;;;;5006977;28;20375;-81
2022/11/13 07:25:54;;;;;;;45.67;7.35;;;;;;;;;;5006863;28;20045;-80
2022/11/13 07:28:39;;;;;;;89.47;9.30;;;;;;;;;;5008170;28;20347;-80
2022/11/13 07:31:23;;;;;;;107.18;12.55;;;;;;;;;;5010235;28;20025;-81
2022/11/13 07:34:10;;;;;;;51.03;6.07;;;;;;;;;;5011789;28;20029;-81
2022/11/13 07:36:55;;;;;;;28.15;4.75;;;;;;;;;;5010481;28;20040;-80
2022/11/13 07:39:39;;;;;;;56.60;6.10;;;;;;;;;;5007349;28;20037;-81
2022/11/13 07:42:23;;;;;;;19.60;3.80;;;;;;;;;;5014151;28;20492;-81
2022/11/13 07:45:10;;;;;;;41.13;5.82;;;;;;;;;;5035415;28;20018;-80
2022/11/13 07:47:58;;;;;;;59.03;6.00;;;;;;;;;;5035481;28;20024;-80
2022/11/13 07:50:44;;;;;;;45.63;5.88;;;;;;;;;;5016338;28;20060;-80
2022/11/13 07:53:29;;;;;;;19.25;3.45;;;;;;;;;;5011708;28;20038;-80
2022/11/13 07:56:14;;;;;;;47.40;7.18;;;;;;;;;;5010174;28;20026;-80
2022/11/13 07:58:58;;;;;;;56.92;6.78;;;;;;;;;;5008494;28;20056;-81
2022/11/13 08:01:42;;;;;;;84.72;7.05;;;;;;;;;;5010554;28;20060;-81
2022/11/13 08:04:29;;;;;;;16.52;5.10;;;;;;;;;;5004736;28;20034;-80
2022/11/13 08:07:16;;;;;;;31.38;5.82;;;;;;;;;;5004587;28;20030;-81
2022/11/13 08:10:00;;;;;;;20.55;4.78;;;;;;;;;;5000408;28;20029;-81
2022/11/13 08:12:45;;;;;;;36.03;4.93;;;;;;;;;;5009565;28;20668;-81
2022/11/13 08:15:30;;;;;;;25.20;5.18;;;;;;;;;;5005800;28;20041;-81
2022/11/13 08:18:19;;;;;;;5.03;3.25;;;;;;;;;;5022566;28;20476;-79
2022/11/13 08:21:04;;;;;;;8.63;2.53;;;;;;;;;;5006169;28;20045;-81
2022/11/13 08:23:49;;;;;;;6.65;3.92;;;;;;;;;;5006102;28;20508;-81
2022/11/13 08:26:35;;;;;;;6.43;3.10;;;;;;;;;;5003431;28;20492;-81
2022/11/13 08:29:20;;;;;;;3.60;2.67;;;;;;;;;;5001829;28;20515;-81
2022/11/13 08:32:04;;;;;;;4.68;2.80;;;;;;;;;;5003808;28;20391;-82
2022/11/13 08:34:53;;;;;;;6.45;3.88;;;;;;;;;;4999093;28;20045;-81
2022/11/13 08:37:45;;;;;;;7.85;4.57;;;;;;;;;;5002626;28;20034;-81
2022/11/13 08:40:33;;;;;;;15.38;3.85;;;;;;;;;;4996041;28;20037;-81
2022/11/13 08:43:20;;;;;;;12.00;3.78;;;;;;;;;;5000900;28;20034;-81
2022/11/13 08:46:05;;;;;;;11.40;2.97;;;;;;;;;;5006587;28;20380;-82
2022/11/13 08:48:49;;;;;;;12.88;4.35;;;;;;;;;;5004036;28;20499;-81
2022/11/13 08:51:36;;;;;;;6.05;3.22;;;;;;;;;;5005143;28;20041;-81
2022/11/13 08:54:23;;;;;;;27.58;4.35;;;;;;;;;;5019407;28;20030;-81
2022/11/13 08:57:15;;;;;;;10.00;6.78;;;;;;;;;;5004401;28;20022;-81
2022/11/13 09:00:02;;;;;;;37.60;5.75;;;;;;;;;;5007023;28;20037;-81
2022/11/13 09:02:52;;;;;;;8.57;5.22;;;;;;;;;;5012757;28;20042;-81
2022/11/13 09:05:39;;;;;;;8.40;4.60;;;;;;;;;;5009187;28;20030;-81
2022/11/13 09:08:24;;;;;;;5.70;4.78;;;;;;;;;;5002963;28;20034;-81
2022/11/13 09:11:10;;;;;;;8.90;5.57;;;;;;;;;;5007894;28;20068;-81
2022/11/13 09:13:54;;;;;;;8.30;5.07;;;;;;;;;;4998218;28;20404;-81
2022/11/13 09:16:39;;;;;;;5.75;5.13;;;;;;;;;;5001906;28;20033;-81
2022/11/13 09:19:26;;;;;;;6.18;5.57;;;;;;;;;;5006439;28;20030;-81
2022/11/13 09:22:10;;;;;;;5.57;5.00;;;;;;;;;;5011258;28;20506;-80
2022/11/13 09:24:57;;;;;;;6.38;5.15;;;;;;;;;;5009210;28;20034;-81
2022/11/13 09:27:42;;;;;;;5.28;4.47;;;;;;;;;;5019523;28;20408;-81
2022/11/13 09:30:27;;;;;;;6.57;4.40;;;;;;;;;;5009937;28;20033;-80
2022/11/13 09:33:14;;;;;;;10.43;8.23;;;;;;;;;;5009000;28;20219;-81
2022/11/13 09:36:01;;;;;;;9.30;6.50;;;;;;;;;;5008270;28;20022;-80
2022/11/13 09:38:45;;;;;;;9.80;8.02;;;;;;;;;;5008983;28;20045;-81
2022/11/13 09:41:36;;;;;;;26.38;18.17;;;;;;;;;;5012212;28;20069;-82
2022/11/13 09:44:31;;;;;;;13.98;12.57;;;;;;;;;;5008991;28;20053;-81
2022/11/13 09:47:25;;;;;;;13.00;10.70;;;;;;;;;;5003781;28;20052;-81
2022/11/13 09:50:20;;;;;;;13.45;10.98;;;;;;;;;;5010657;28;20030;-81
2022/11/13 09:53:05;;;;;;;11.30;8.05;;;;;;;;;;5006611;28;20026;-81
2022/11/13 09:56:04;;;;;;;7.95;6.50;;;;;;;;;;5010826;28;20657;-81
2022/11/13 09:58:55;;;;;;;10.50;7.90;;;;;;;;;;5009026;28;20030;-81
2022/11/13 10:02:01;;;;;;;13.35;11.25;;;;;;;;;;5023383;28;20098;-81
2022/11/13 10:04:45;;;;;;;11.85;10.38;;;;;;;;;;5007203;28;20396;-82
2022/11/13 10:07:37;;;;;;;8.98;8.07;;;;;;;;;;5006726;28;21268;-81
2022/11/13 10:10:24;;;;;;;;;;;;;;;;;;5022649;28;20392;-82
2022/11/13 10:13:10;;;;;;;9.45;6.63;;;;;;;;;;5005080;28;19910;-81
2022/11/13 10:16:03;;;;;;;7.05;5.10;;;;;;;;;;5009772;28;20471;-81
2022/11/13 10:18:49;;;;;;;6.93;5.38;;;;;;;;;;5003585;28;20523;-81
2022/11/13 10:21:35;;;;;;;7.90;5.63;;;;;;;;;;5000802;28;20415;-81
2022/11/13 10:24:24;;;;;;;5.72;4.65;;;;;;;;;;5006221;28;20499;-81
2022/11/13 10:27:15;;;;;;;5.45;4.50;;;;;;;;;;4998534;28;20029;-81
2022/11/13 10:30:04;;;;;;;9.10;6.13;;;;;;;;;;5005359;28;20030;-81
2022/11/13 10:32:49;;;;;;;7.43;5.55;;;;;;;;;;5003068;28;20030;-81
2022/11/13 10:35:46;;;;;;;6.82;5.47;;;;;;;;;;5005907;28;20026;-81
2022/11/13 10:38:45;;;;;;;5.95;5.40;;;;;;;;;;5007203;28;20125;-81
2022/11/13 10:41:29;;;;;;;11.50;6.70;;;;;;;;;;5017584;28;20034;-81
2022/11/13 10:44:16;;;;;;;6.10;5.47;;;;;;;;;;5002754;28;20022;-81
2022/11/13 10:47:05;;;;;;;7.53;5.57;;;;;;;;;;5008330;28;20483;-81
2022/11/13 10:49:51;;;;;;;6.80;5.75;;;;;;;;;;5000855;28;20034;-81
2022/11/13 10:52:43;;;;;;;5.60;4.90;;;;;;;;;;4999265;28;20026;-81
2022/11/13 10:55:35;;;;;;;8.75;6.20;;;;;;;;;;5006042;28;20037;-81
2022/11/13 10:58:20;;;;;;;8.75;5.85;;;;;;;;;;5002511;28;20037;-81
2022/11/13 11:01:22;;;;;;;6.65;4.95;;;;;;;;;;5008117;28;20479;-81
2022/11/13 11:04:18;;;;;;;6.97;5.78;;;;;;;;;;5003834;28;20029;-81
2022/11/13 11:07:11;;;;;;;8.52;5.55;;;;;;;;;;5004572;28;20033;-81
2022/11/13 11:09:58;;;;;;;5.97;5.00;;;;;;;;;;5009546;28;20034;-81
2022/11/13 11:12:50;;;;;;;7.03;6.38;;;;;;;;;;5004425;28;20034;-81
2022/11/13 11:15:43;;;;;;;6.72;5.82;;;;;;;;;;5008171;28;20034;-80
2022/11/13 11:18:33;;;;;;;6.30;5.43;;;;;;;;;;5015678;28;20026;-81
2022/11/13 11:21:22;;;;;;;6.43;4.93;;;;;;;;;;5005233;28;20029;-80
2022/11/13 11:24:18;;;;;;;9.73;6.65;;;;;;;;;;5009805;28;20034;-80
2022/11/13 11:27:38;;;;;;;7.07;5.43;;;;;;;;;;5000589;28;20030;-80
2022/11/13 11:30:25;;;;;;;7.80;5.80;;;;;;;;;;4967938;28;20039;-80
2022/11/13 11:33:21;;;;;;;6.22;5.03;;;;;;;;;;5002067;28;20030;-80
2022/11/13 11:36:07;;;;;;;6.53;5.47;;;;;;;;;;5007770;28;20026;-79
2022/11/13 11:38:55;;;;;;;7.75;6.05;;;;;;;;;;5001217;28;20105;-80
2022/11/13 11:41:42;;;;;;;10.70;6.03;;;;;;;;;;5007691;28;20038;-81
2022/11/13 11:44:34;;;;;;;10.80;6.30;;;;;;;;;;5020389;28;20460;-80
2022/11/13 11:47:19;;;;;;;7.25;5.55;;;;;;;;;;5001873;28;20097;-81
2022/11/13 11:50:05;;;;;;;6.70;5.10;;;;;;;;;;5006155;28;20026;-80
2022/11/13 11:52:49;;;;;;;5.15;4.35;;;;;;;;;;5014820;28;20049;-79
2022/11/13 11:56:09;;;;;;;7.22;5.45;;;;;;;;;;5008178;28;20029;-79
2022/11/13 11:58:53;;;;;;;4.97;3.85;;;;;;;;;;4969993;28;20038;-79
2022/11/13 12:01:59;;;;;;;5.80;3.85;;;;;;;;;;5004747;28;20044;-79
2022/11/13 12:05:00;;;;;;;8.00;5.07;;;;;;;;;;5012826;28;20033;-79
2022/11/13 12:08:03;;;;;;;7.13;5.78;;;;;;;;;;5008648;28;20113;-80
2022/11/13 12:11:06;;;;;;;4.77;3.97;;;;;;;;;;5011083;28;20052;-80
2022/11/13 12:13:51;;;;;;;5.45;4.70;;;;;;;;;;5012803;28;20037;-81
2022/11/13 12:16:40;;;;;;;6.45;4.60;;;;;;;;;;5013996;28;20045;-81
2022/11/13 12:19:30;;;;;;;5.63;4.40;;;;;;;;;;5011898;28;20026;-80
2022/11/13 12:22:32;;;;;;;6.07;4.07;;;;;;;;;;5012129;28;20033;-80
2022/11/13 12:25:16;;;;;;;5.50;4.85;;;;;;;;;;5006164;28;20022;-80
2022/11/13 12:28:18;;;;;;;5.50;3.65;;;;;;;;;;5006909;28;20052;-80
2022/11/13 12:31:08;;;;;;;8.25;4.18;;;;;;;;;;4999869;28;20041;-80
2022/11/13 12:34:01;;;;;;;7.57;4.93;;;;;;;;;;5010969;28;20041;-80
2022/11/13 12:36:48;;;;;;;3.35;3.05;;;;;;;;;;5010428;28;20037;-80
2022/11/13 12:39:35;;;;;;;6.10;4.10;;;;;;;;;;5009991;28;20034;-80
2022/11/13 12:42:33;;;;;;;6.38;3.58;;;;;;;;;;5011865;28;20033;-81
2022/11/13 12:45:38;;;;;;;5.40;4.00;;;;;;;;;;5012493;28;20030;-81
2022/11/13 12:51:37;;;;;;;3.30;3.00;;;;;;;;;;4935916;29;20047;-72
2022/11/13 12:54:29;;;;;;;6.30;3.88;;;;;;;;;;4947655;29;20031;-72
2022/11/13 12:57:18;;;;;;;4.15;3.53;;;;;;;;;;4951215;28;20409;-72
2022/11/13 13:00:31;;;;;;;5.13;3.88;;;;;;;;;;4957273;28;20035;-72
2022/11/13 13:03:34;;;;;;;4.72;3.60;;;;;;;;;;4960378;28;20019;-72
2022/11/13 13:06:44;;;;;;;4.95;3.42;;;;;;;;;;4967461;28;20027;-72
2022/11/13 13:09:40;;;;;;;4.18;3.28;;;;;;;;;;4961090;28;20027;-73
2022/11/13 13:12:26;;;;;;;3.33;2.60;;;;;;;;;;4937466;28;20401;-73
2022/11/13 13:15:11;;;;;;;2.38;2.17;;;;;;;;;;4960643;28;20053;-72
2022/11/13 13:18:16;;;;;;;7.20;3.17;;;;;;;;;;4975869;28;20034;-73
2022/11/13 13:21:00;;;;;;;4.25;2.97;;;;;;;;;;4971227;28;20038;-73
2022/11/13 13:23:49;;;;;;;3.38;2.70;;;;;;;;;;4962604;28;20046;-73
2022/11/13 13:26:42;;;;;;;4.70;3.25;;;;;;;;;;4966635;28;20035;-73
2022/11/13 13:29:34;;;;;;;2.58;2.30;;;;;;;;;;4965601;28;20034;-73
2022/11/13 13:32:30;;;;;;;3.92;2.42;;;;;;;;;;4978536;28;20031;-73
2022/11/13 13:35:17;;;;;;;3.07;2.77;;;;;;;;;;4964778;28;20027;-73
2022/11/13 13:38:18;;;;;;;5.65;3.25;;;;;;;;;;4979062;28;20041;-73
2022/11/13 13:41:05;;;;;;;3.47;2.35;;;;;;;;;;4964115;28;20034;-73
2022/11/13 13:43:54;;;;;;;3.47;2.35;;;;;;;;;;4977553;28;20469;-73
2022/11/13 13:46:41;;;;;;;5.18;3.80;;;;;;;;;;4969623;28;20228;-73
2022/11/13 13:49:27;;;;;;;4.57;3.78;;;;;;;;;;4966307;28;20053;-73
2022/11/13 13:52:19;;;;;;;4.85;3.20;;;;;;;;;;4973561;28;20033;-73
2022/11/13 13:55:04;;;;;;;3.78;2.67;;;;;;;;;;4968715;28;20361;-73
2022/11/13 13:57:52;;;;;;;3.03;2.22;;;;;;;;;;4964817;28;20039;-74
2022/11/13 14:00:36;;;;;;;2.92;2.22;;;;;;;;;;4959777;28;20035;-73
2022/11/13 14:03:24;;;;;;;3.33;2.83;;;;;;;;;;4965862;28;20034;-74
2022/11/13 14:06:19;;;;;;;2.35;2.15;;;;;;;;;;4958460;28;20436;-73
2022/11/13 14:09:16;;;;;;;8.30;2.88;;;;;;;;;;4959012;28;20035;-73
2022/11/13 14:12:01;;;;;;;5.75;3.80;;;;;;;;;;4962369;28;20023;-73
2022/11/13 14:14:48;;;;;;;4.43;3.47;;;;;;;;;;4958537;28;20081;-73
2022/11/13 14:17:34;;;;;;;4.88;4.18;;;;;;;;;;4959211;28;20047;-73
2022/11/13 14:20:19;;;;;;;4.25;3.40;;;;;;;;;;4965511;28;20228;-73
2022/11/13 14:23:04;;;;;;;4.70;3.05;;;;;;;;;;4946601;28;20039;-73
2022/11/13 14:25:52;;;;;;;4.93;3.65;;;;;;;;;;4956916;28;20528;-73
2022/11/13 14:28:45;;;;;;;4.00;2.72;;;;;;;;;;4960067;28;20539;-73
2022/11/13 14:31:34;;;;;;;3.95;2.88;;;;;;;;;;4957384;28;20038;-73
2022/11/13 14:34:22;;;;;;;3.90;2.75;;;;;;;;;;4954818;28;20054;-73
2022/11/13 14:37:19;;;;;;;4.53;3.60;;;;;;;;;;4956623;28;20038;-72
2022/11/13 14:40:18;;;;;;;3.65;3.22;;;;;;;;;;4959135;28;20034;-73
2022/11/13 14:43:06;;;;;;;4.72;3.13;;;;;;;;;;4958128;28;20038;-73
2022/11/13 14:46:13;;;;;;;3.50;2.70;;;;;;;;;;4956939;28;20401;-73
2022/11/13 14:48:57;;;;;;;5.32;4.00;;;;;;;;;;4942473;28;20478;-72
2022/11/13 14:51:53;;;;;;;5.05;3.70;;;;;;;;;;4963422;28;20035;-73
2022/11/13 14:54:37;;;;;;;3.15;2.90;;;;;;;;;;4943878;28;20042;-73
2022/11/13 14:57:22;;;;;;;4.07;3.05;;;;;;;;;;4958862;28;20015;-73
2022/11/13 15:00:10;;;;;;;4.15;2.80;;;;;;;;;;4959192;28;20503;-73
2022/11/13 15:02:58;;;;;;;3.00;2.70;;;;;;;;;;4944069;28;20038;-73
2022/11/13 15:05:42;;;;;;;3.38;3.08;;;;;;;;;;4962987;28;20031;-73
2022/11/13 15:08:31;;;;;;;4.35;3.20;;;;;;;;;;4963609;28;20036;-73
2022/11/13 15:11:19;;;;;;;5.28;4.22;;;;;;;;;;4962633;28;20042;-73
2022/11/13 15:14:08;;;;;;;4.28;3.08;;;;;;;;;;4960904;28;20476;-72
2022/11/13 15:16:55;;;;;;;6.03;4.53;;;;;;;;;;4955858;28;20039;-74
2022/11/13 15:19:39;;;;;;;4.10;3.70;;;;;;;;;;4962491;28;20038;-74
2022/11/13 15:22:26;;;;;;;5.18;3.78;;;;;;;;;;4963655;28;20031;-73
2022/11/13 15:25:15;;;;;;;5.18;3.97;;;;;;;;;;4959049;28;20027;-74
2022/11/13 15:28:00;;;;;;;6.57;4.72;;;;;;;;;;4966718;28;20027;-72
2022/11/13 15:30:45;;;;;;;6.10;4.40;;;;;;;;;;4958588;28;20043;-72
2022/11/13 15:33:29;;;;;;;3.80;3.50;;;;;;;;;;4963313;28;20035;-73
2022/11/13 15:36:14;;;;;;;5.78;3.85;;;;;;;;;;4969287;28;20031;-73
2022/11/13 15:39:00;;;;;;;4.28;2.70;;;;;;;;;;4965720;28;20030;-73
2022/11/13 15:41:46;;;;;;;4.28;3.10;;;;;;;;;;4963731;28;20470;-73
2022/11/13 15:44:30;;;;;;;5.95;3.53;;;;;;;;;;4961304;28;20552;-73
2022/11/13 15:47:24;;;;;;;6.43;3.47;;;;;;;;;;4964935;28;20034;-74
2022/11/13 15:50:10;;;;;;;7.95;4.03;;;;;;;;;;4966003;28;20031;-71
2022/11/13 15:52:55;;;;;;;5.18;4.55;;;;;;;;;;4967350;28;20034;-73
2022/11/13 15:55:40;;;;;;;9.30;5.50;;;;;;;;;;4957559;28;20038;-73
2022/11/13 15:58:25;;;;;;;5.97;5.38;;;;;;;;;;4967287;28;20054;-73
2022/11/13 16:01:13;;;;;;;6.32;5.25;;;;;;;;;;4966097;28;20042;-73
2022/11/13 16:04:01;;;;;;;7.35;5.63;;;;;;;;;;4946356;28;20039;-73
2022/11/13 16:06:47;;;;;;;5.60;4.72;;;;;;;;;;4964400;28;20027;-73
2022/11/13 16:09:34;;;;;;;7.32;5.57;;;;;;;;;;4954356;28;20042;-73
2022/11/13 16:12:19;;;;;;;10.35;6.18;;;;;;;;;;4972326;28;20026;-73
2022/11/13 16:15:09;;;;;;;5.78;4.82;;;;;;;;;;4964880;28;20023;-73
2022/11/13 16:17:56;;;;;;;9.63;5.65;;;;;;;;;;4960026;28;20039;-73
2022/11/13 16:20:40;;;;;;;7.25;5.47;;;;;;;;;;4963083;28;20031;-73
2022/11/13 16:23:25;;;;;;;8.18;5.65;;;;;;;;;;4943675;28;20035;-73
2022/11/13 16:26:14;;;;;;;4.85;3.38;;;;;;;;;;4950393;28;20031;-73
2022/11/13 16:28:59;;;;;;;6.60;4.18;;;;;;;;;;4948545;28;20038;-73
2022/11/13 16:31:43;;;;;;;5.90;4.90;;;;;;;;;;4959743;28;20038;-73
2022/11/13 16:34:27;;;;;;;7.63;6.82;;;;;;;;;;4963185;28;20030;-73
2022/11/13 16:37:13;;;;;;;8.02;5.68;;;;;;;;;;4966909;28;20041;-72